sensor_id;sensor_type;location;lat;lon;timestamp;temperature;humidity
17348;DHT22;8791;50.876;4.342;2024-02-15T00:00:16;13.30;99.90
17348;DHT22;8791;50.876;4.342;2024-02-15T00:02:43;13.30;99.90
17348;DHT22;8791;50.876;4.342;2024-02-15T00:05:10;13.30;99.90
17348;DHT22;8791;50.876;4.342;2024-02-15T00:07:38;13.30;99.90
17348;DHT22;8791;50.876;4.342;2024-02-15T00:10:05;13.30;99.90
17348;DHT22;8791;50.876;4.342;2024-02-15T00:12:34;13.40;99.90
17348;DHT22;8791;50.876;4.342;2024-02-15T00:15:01;13.40;99.90
17348;DHT22;8791;50.876;4.342;2024-02-15T00:17:30;13.30;99.90
17348;DHT22;8791;50.876;4.342;2024-02-15T00:19:58;13.30;99.90
17348;DHT22;8791;50.876;4.342;2024-02-15T00:22:25;13.30;99.90
17348;DHT22;8791;50.876;4.342;2024-02-15T00:24:52;13.40;99.90
17348;DHT22;8791;50.876;4.342;2024-02-15T00:27:19;13.40;99.90
17348;DHT22;8791;50.876;4.342;2024-02-15T00:29:46;13.50;99.90
17348;DHT22;8791;50.876;4.342;2024-02-15T00:32:13;13.50;99.90
17348;DHT22;8791;50.876;4.342;2024-02-15T00:34:41;13.50;99.90
17348;DHT22;8791;50.876;4.342;2024-02-15T00:37:08;13.50;99.90
17348;DHT22;8791;50.876;4.342;2024-02-15T00:39:35;13.50;99.90
17348;DHT22;8791;50.876;4.342;2024-02-15T00:42:02;13.40;99.90
17348;DHT22;8791;50.876;4.342;2024-02-15T00:44:31;13.50;99.90
17348;DHT22;8791;50.876;4.342;2024-02-15T00:46:58;13.50;99.90
17348;DHT22;8791;50.876;4.342;2024-02-15T00:49:25;13.40;99.90
17348;DHT22;8791;50.876;4.342;2024-02-15T00:51:54;13.40;99.90
17348;DHT22;8791;50.876;4.342;2024-02-15T00:54:21;13.40;99.90
17348;DHT22;8791;50.876;4.342;2024-02-15T00:56:48;13.30;99.90
17348;DHT22;8791;50.876;4.342;2024-02-15T00:59:15;13.40;99.90
17348;DHT22;8791;50.876;4.342;2024-02-15T01:01:42;13.40;99.90
17348;DHT22;8791;50.876;4.342;2024-02-15T01:04:09;13.50;99.90
17348;DHT22;8791;50.876;4.342;2024-02-15T01:06:37;13.50;99.90
17348;DHT22;8791;50.876;4.342;2024-02-15T01:09:05;13.50;99.90
17348;DHT22;8791;50.876;4.342;2024-02-15T01:11:33;13.40;99.90
17348;DHT22;8791;50.876;4.342;2024-02-15T01:14:02;13.50;99.90
17348;DHT22;8791;50.876;4.342;2024-02-15T01:16:29;13.50;99.90
17348;DHT22;8791;50.876;4.342;2024-02-15T01:18:56;13.60;99.90
17348;DHT22;8791;50.876;4.342;2024-02-15T01:21:23;13.50;99.90
17348;DHT22;8791;50.876;4.342;2024-02-15T01:23:49;13.50;99.90
17348;DHT22;8791;50.876;4.342;2024-02-15T01:26:20;13.50;99.90
17348;DHT22;8791;50.876;4.342;2024-02-15T01:28:47;13.40;99.90
17348;DHT22;8791;50.876;4.342;2024-02-15T01:31:14;13.50;99.90
17348;DHT22;8791;50.876;4.342;2024-02-15T01:33:43;13.40;99.90
17348;DHT22;8791;50.876;4.342;2024-02-15T01:36:13;13.40;99.90
17348;DHT22;8791;50.876;4.342;2024-02-15T01:38:41;13.40;99.90
17348;DHT22;8791;50.876;4.342;2024-02-15T01:41:08;13.50;99.90
17348;DHT22;8791;50.876;4.342;2024-02-15T01:43:36;13.50;99.90
17348;DHT22;8791;50.876;4.342;2024-02-15T01:46:07;13.40;99.90
17348;DHT22;8791;50.876;4.342;2024-02-15T01:48:36;13.40;99.90
17348;DHT22;8791;50.876;4.342;2024-02-15T01:51:04;13.40;99.90
17348;DHT22;8791;50.876;4.342;2024-02-15T01:53:31;13.40;99.90
17348;DHT22;8791;50.876;4.342;2024-02-15T01:55:59;13.40;99.90
17348;DHT22;8791;50.876;4.342;2024-02-15T01:58:27;13.50;99.90
17348;DHT22;8791;50.876;4.342;2024-02-15T02:00:56;13.40;99.90
17348;DHT22;8791;50.876;4.342;2024-02-15T02:03:23;13.50;99.90
17348;DHT22;8791;50.876;4.342;2024-02-15T02:05:49;13.40;99.90
17348;DHT22;8791;50.876;4.342;2024-02-15T02:08:16;13.40;99.90
17348;DHT22;8791;50.876;4.342;2024-02-15T02:10:43;13.40;99.90
17348;DHT22;8791;50.876;4.342;2024-02-15T02:13:11;13.40;99.90
17348;DHT22;8791;50.876;4.342;2024-02-15T02:15:38;13.40;99.90
17348;DHT22;8791;50.876;4.342;2024-02-15T02:18:06;13.40;99.90
17348;DHT22;8791;50.876;4.342;2024-02-15T02:20:34;13.50;99.90
17348;DHT22;8791;50.876;4.342;2024-02-15T02:23:04;13.40;99.90
17348;DHT22;8791;50.876;4.342;2024-02-15T02:25:35;13.40;99.90
17348;DHT22;8791;50.876;4.342;2024-02-15T02:28:02;13.50;99.90
17348;DHT22;8791;50.876;4.342;2024-02-15T02:30:29;13.60;99.90
17348;DHT22;8791;50.876;4.342;2024-02-15T02:32:56;13.50;99.90
17348;DHT22;8791;50.876;4.342;2024-02-15T02:35:24;13.60;99.90
17348;DHT22;8791;50.876;4.342;2024-02-15T02:37:51;13.50;99.90
17348;DHT22;8791;50.876;4.342;2024-02-15T02:40:19;13.50;99.90
17348;DHT22;8791;50.876;4.342;2024-02-15T02:42:49;13.60;99.90
17348;DHT22;8791;50.876;4.342;2024-02-15T02:45:17;13.70;99.90
17348;DHT22;8791;50.876;4.342;2024-02-15T02:47:45;13.70;99.90
17348;DHT22;8791;50.876;4.342;2024-02-15T02:50:13;13.60;99.90
17348;DHT22;8791;50.876;4.342;2024-02-15T02:52:40;13.70;99.90
17348;DHT22;8791;50.876;4.342;2024-02-15T02:55:07;13.80;99.90
17348;DHT22;8791;50.876;4.342;2024-02-15T02:57:34;13.70;99.90
17348;DHT22;8791;50.876;4.342;2024-02-15T03:00:05;13.70;99.90
17348;DHT22;8791;50.876;4.342;2024-02-15T03:02:33;13.70;99.90
17348;DHT22;8791;50.876;4.342;2024-02-15T03:05:02;13.70;99.90
17348;DHT22;8791;50.876;4.342;2024-02-15T03:07:32;13.70;99.90
17348;DHT22;8791;50.876;4.342;2024-02-15T03:09:59;13.60;99.90
17348;DHT22;8791;50.876;4.342;2024-02-15T03:12:26;13.60;99.90
17348;DHT22;8791;50.876;4.342;2024-02-15T03:14:55;13.60;99.90
17348;DHT22;8791;50.876;4.342;2024-02-15T03:17:25;13.60;99.90
17348;DHT22;8791;50.876;4.342;2024-02-15T03:19:51;13.60;99.90
17348;DHT22;8791;50.876;4.342;2024-02-15T03:22:18;13.50;99.90
17348;DHT22;8791;50.876;4.342;2024-02-15T03:24:46;13.50;99.90
17348;DHT22;8791;50.876;4.342;2024-02-15T03:27:12;13.50;99.90
17348;DHT22;8791;50.876;4.342;2024-02-15T03:29:39;13.40;99.90
17348;DHT22;8791;50.876;4.342;2024-02-15T03:32:06;13.50;99.90
17348;DHT22;8791;50.876;4.342;2024-02-15T03:34:36;13.40;99.90
17348;DHT22;8791;50.876;4.342;2024-02-15T03:37:05;13.40;99.90
17348;DHT22;8791;50.876;4.342;2024-02-15T03:39:31;13.40;99.90
17348;DHT22;8791;50.876;4.342;2024-02-15T03:41:59;13.40;99.90
17348;DHT22;8791;50.876;4.342;2024-02-15T03:44:26;13.30;99.90
17348;DHT22;8791;50.876;4.342;2024-02-15T03:46:53;13.30;99.90
17348;DHT22;8791;50.876;4.342;2024-02-15T03:49:20;13.40;99.90
17348;DHT22;8791;50.876;4.342;2024-02-15T03:51:49;13.30;99.90
17348;DHT22;8791;50.876;4.342;2024-02-15T03:54:16;13.30;99.90
17348;DHT22;8791;50.876;4.342;2024-02-15T03:56:49;13.30;99.90
17348;DHT22;8791;50.876;4.342;2024-02-15T03:59:18;13.30;99.90
17348;DHT22;8791;50.876;4.342;2024-02-15T04:01:52;13.20;99.90
17348;DHT22;8791;50.876;4.342;2024-02-15T04:04:19;13.10;99.90
17348;DHT22;8791;50.876;4.342;2024-02-15T04:06:49;13.10;99.90
17348;DHT22;8791;50.876;4.342;2024-02-15T04:09:16;13.00;99.90
17348;DHT22;8791;50.876;4.342;2024-02-15T04:11:43;13.00;99.90
17348;DHT22;8791;50.876;4.342;2024-02-15T04:14:12;12.80;99.90
17348;DHT22;8791;50.876;4.342;2024-02-15T04:16:39;12.80;99.90
17348;DHT22;8791;50.876;4.342;2024-02-15T04:19:06;12.70;99.90
17348;DHT22;8791;50.876;4.342;2024-02-15T04:21:33;12.70;99.90
17348;DHT22;8791;50.876;4.342;2024-02-15T04:24:01;12.70;99.90
17348;DHT22;8791;50.876;4.342;2024-02-15T04:26:28;12.60;99.90
17348;DHT22;8791;50.876;4.342;2024-02-15T04:28:56;12.60;99.90
17348;DHT22;8791;50.876;4.342;2024-02-15T04:31:24;12.50;99.90
17348;DHT22;8791;50.876;4.342;2024-02-15T04:33:52;12.50;99.90
17348;DHT22;8791;50.876;4.342;2024-02-15T04:36:19;12.60;99.90
17348;DHT22;8791;50.876;4.342;2024-02-15T04:38:49;12.60;99.90
17348;DHT22;8791;50.876;4.342;2024-02-15T04:41:18;12.50;99.90
17348;DHT22;8791;50.876;4.342;2024-02-15T04:43:48;12.50;99.90
17348;DHT22;8791;50.876;4.342;2024-02-15T04:46:15;12.50;99.90
17348;DHT22;8791;50.876;4.342;2024-02-15T04:48:42;12.60;99.90
17348;DHT22;8791;50.876;4.342;2024-02-15T04:51:09;12.60;99.90
17348;DHT22;8791;50.876;4.342;2024-02-15T04:53:37;12.60;99.90
17348;DHT22;8791;50.876;4.342;2024-02-15T04:56:05;12.60;99.90
17348;DHT22;8791;50.876;4.342;2024-02-15T04:58:38;12.50;99.90
17348;DHT22;8791;50.876;4.342;2024-02-15T05:01:12;12.50;99.90
17348;DHT22;8791;50.876;4.342;2024-02-15T05:03:39;12.50;99.90
17348;DHT22;8791;50.876;4.342;2024-02-15T05:06:06;12.50;99.90
17348;DHT22;8791;50.876;4.342;2024-02-15T05:08:34;12.50;99.90
17348;DHT22;8791;50.876;4.342;2024-02-15T05:11:02;12.60;99.90
17348;DHT22;8791;50.876;4.342;2024-02-15T05:13:30;12.60;99.90
17348;DHT22;8791;50.876;4.342;2024-02-15T05:15:59;12.70;99.90
17348;DHT22;8791;50.876;4.342;2024-02-15T05:18:26;12.70;99.90
17348;DHT22;8791;50.876;4.342;2024-02-15T05:20:53;12.70;99.90
17348;DHT22;8791;50.876;4.342;2024-02-15T05:23:20;12.80;99.90
17348;DHT22;8791;50.876;4.342;2024-02-15T05:25:47;12.80;99.90
17348;DHT22;8791;50.876;4.342;2024-02-15T05:28:14;12.80;99.90
17348;DHT22;8791;50.876;4.342;2024-02-15T05:30:43;12.90;99.90
17348;DHT22;8791;50.876;4.342;2024-02-15T05:33:11;12.90;99.90
17348;DHT22;8791;50.876;4.342;2024-02-15T05:35:38;12.90;99.90
17348;DHT22;8791;50.876;4.342;2024-02-15T05:38:07;12.90;99.90
17348;DHT22;8791;50.876;4.342;2024-02-15T05:40:33;12.90;99.90
17348;DHT22;8791;50.876;4.342;2024-02-15T05:43:00;13.10;99.90
17348;DHT22;8791;50.876;4.342;2024-02-15T05:45:31;13.10;99.90
17348;DHT22;8791;50.876;4.342;2024-02-15T05:48:04;13.00;99.90
17348;DHT22;8791;50.876;4.342;2024-02-15T05:50:33;13.00;99.90
17348;DHT22;8791;50.876;4.342;2024-02-15T05:53:00;13.10;99.90
17348;DHT22;8791;50.876;4.342;2024-02-15T05:55:27;13.20;99.90
17348;DHT22;8791;50.876;4.342;2024-02-15T05:57:56;13.20;99.90
17348;DHT22;8791;50.876;4.342;2024-02-15T06:00:23;13.30;99.90
17348;DHT22;8791;50.876;4.342;2024-02-15T06:02:50;13.30;99.90
17348;DHT22;8791;50.876;4.342;2024-02-15T06:05:18;13.30;99.90
17348;DHT22;8791;50.876;4.342;2024-02-15T06:07:46;13.30;99.90
17348;DHT22;8791;50.876;4.342;2024-02-15T06:10:13;13.30;99.90
17348;DHT22;8791;50.876;4.342;2024-02-15T06:12:41;13.30;99.90
17348;DHT22;8791;50.876;4.342;2024-02-15T06:15:09;13.30;99.90
17348;DHT22;8791;50.876;4.342;2024-02-15T06:17:41;13.30;99.90
17348;DHT22;8791;50.876;4.342;2024-02-15T06:20:11;13.40;99.90
17348;DHT22;8791;50.876;4.342;2024-02-15T06:22:39;13.40;99.90
17348;DHT22;8791;50.876;4.342;2024-02-15T06:25:08;13.40;99.90
17348;DHT22;8791;50.876;4.342;2024-02-15T06:27:36;13.50;99.90
17348;DHT22;8791;50.876;4.342;2024-02-15T06:30:07;13.50;99.90
17348;DHT22;8791;50.876;4.342;2024-02-15T06:32:51;13.40;99.90
17348;DHT22;8791;50.876;4.342;2024-02-15T06:35:37;13.40;99.90
17348;DHT22;8791;50.876;4.342;2024-02-15T06:38:21;13.30;99.90
17348;DHT22;8791;50.876;4.342;2024-02-15T06:41:07;13.30;99.90
17348;DHT22;8791;50.876;4.342;2024-02-15T06:43:34;13.30;99.90
17348;DHT22;8791;50.876;4.342;2024-02-15T06:46:01;13.30;99.90
17348;DHT22;8791;50.876;4.342;2024-02-15T06:48:28;13.20;99.90
17348;DHT22;8791;50.876;4.342;2024-02-15T06:50:55;13.30;99.90
17348;DHT22;8791;50.876;4.342;2024-02-15T06:53:22;13.40;99.90
17348;DHT22;8791;50.876;4.342;2024-02-15T06:55:49;13.50;99.90
17348;DHT22;8791;50.876;4.342;2024-02-15T06:58:17;13.50;99.90
17348;DHT22;8791;50.876;4.342;2024-02-15T07:00:47;13.50;99.90
17348;DHT22;8791;50.876;4.342;2024-02-15T07:03:15;13.50;99.90
17348;DHT22;8791;50.876;4.342;2024-02-15T07:05:42;13.60;99.90
17348;DHT22;8791;50.876;4.342;2024-02-15T07:08:09;13.60;99.90
17348;DHT22;8791;50.876;4.342;2024-02-15T07:10:39;13.60;99.90
17348;DHT22;8791;50.876;4.342;2024-02-15T07:13:06;13.60;99.90
17348;DHT22;8791;50.876;4.342;2024-02-15T07:15:34;13.50;99.90
17348;DHT22;8791;50.876;4.342;2024-02-15T07:18:04;13.50;99.90
17348;DHT22;8791;50.876;4.342;2024-02-15T07:20:32;13.60;99.90
17348;DHT22;8791;50.876;4.342;2024-02-15T07:22:59;13.60;99.90
17348;DHT22;8791;50.876;4.342;2024-02-15T07:25:26;13.70;99.90
17348;DHT22;8791;50.876;4.342;2024-02-15T07:27:53;13.70;99.90
17348;DHT22;8791;50.876;4.342;2024-02-15T07:30:20;13.60;99.90
17348;DHT22;8791;50.876;4.342;2024-02-15T07:32:49;13.60;99.90
17348;DHT22;8791;50.876;4.342;2024-02-15T07:35:16;13.70;99.90
17348;DHT22;8791;50.876;4.342;2024-02-15T07:37:51;13.70;99.90
17348;DHT22;8791;50.876;4.342;2024-02-15T07:40:19;13.70;99.90
17348;DHT22;8791;50.876;4.342;2024-02-15T07:42:47;13.70;99.90
17348;DHT22;8791;50.876;4.342;2024-02-15T07:45:14;13.80;99.90
17348;DHT22;8791;50.876;4.342;2024-02-15T07:47:41;13.80;99.90
17348;DHT22;8791;50.876;4.342;2024-02-15T07:50:10;13.90;99.90
17348;DHT22;8791;50.876;4.342;2024-02-15T07:52:38;13.90;99.90
17348;DHT22;8791;50.876;4.342;2024-02-15T07:55:05;13.90;99.90
17348;DHT22;8791;50.876;4.342;2024-02-15T07:57:34;13.90;99.90
17348;DHT22;8791;50.876;4.342;2024-02-15T08:00:01;14.00;99.90
17348;DHT22;8791;50.876;4.342;2024-02-15T08:02:31;14.00;99.90
17348;DHT22;8791;50.876;4.342;2024-02-15T08:04:58;14.00;99.90
17348;DHT22;8791;50.876;4.342;2024-02-15T08:07:27;14.00;99.90
17348;DHT22;8791;50.876;4.342;2024-02-15T08:09:57;14.00;99.90
17348;DHT22;8791;50.876;4.342;2024-02-15T08:12:25;13.90;99.90
17348;DHT22;8791;50.876;4.342;2024-02-15T08:14:52;13.90;99.90
17348;DHT22;8791;50.876;4.342;2024-02-15T08:17:18;13.90;99.90
17348;DHT22;8791;50.876;4.342;2024-02-15T08:19:45;14.00;99.90
17348;DHT22;8791;50.876;4.342;2024-02-15T08:22:12;14.10;99.90
17348;DHT22;8791;50.876;4.342;2024-02-15T08:24:40;14.10;99.90
17348;DHT22;8791;50.876;4.342;2024-02-15T08:27:09;14.00;99.90
17348;DHT22;8791;50.876;4.342;2024-02-15T08:29:36;14.10;99.90
17348;DHT22;8791;50.876;4.342;2024-02-15T08:32:04;14.20;99.90
17348;DHT22;8791;50.876;4.342;2024-02-15T08:34:33;14.30;99.90
17348;DHT22;8791;50.876;4.342;2024-02-15T08:37:00;14.30;99.90
17348;DHT22;8791;50.876;4.342;2024-02-15T08:39:28;14.40;99.90
17348;DHT22;8791;50.876;4.342;2024-02-15T08:41:56;14.40;99.90
17348;DHT22;8791;50.876;4.342;2024-02-15T08:44:24;14.50;99.90
17348;DHT22;8791;50.876;4.342;2024-02-15T08:46:51;14.70;99.90
17348;DHT22;8791;50.876;4.342;2024-02-15T08:49:18;14.80;99.90
17348;DHT22;8791;50.876;4.342;2024-02-15T08:51:46;14.70;99.90
17348;DHT22;8791;50.876;4.342;2024-02-15T08:54:13;14.80;99.90
17348;DHT22;8791;50.876;4.342;2024-02-15T08:56:39;14.80;99.90
17348;DHT22;8791;50.876;4.342;2024-02-15T08:59:07;14.90;99.90
17348;DHT22;8791;50.876;4.342;2024-02-15T09:01:34;14.80;99.90
17348;DHT22;8791;50.876;4.342;2024-02-15T09:04:01;14.80;99.90
17348;DHT22;8791;50.876;4.342;2024-02-15T09:06:28;14.90;99.90
17348;DHT22;8791;50.876;4.342;2024-02-15T09:08:56;15.00;99.90
17348;DHT22;8791;50.876;4.342;2024-02-15T09:11:28;15.00;99.90
17348;DHT22;8791;50.876;4.342;2024-02-15T09:13:55;15.10;99.90
17348;DHT22;8791;50.876;4.342;2024-02-15T09:16:23;14.90;99.90
17348;DHT22;8791;50.876;4.342;2024-02-15T09:18:50;14.90;99.90
17348;DHT22;8791;50.876;4.342;2024-02-15T09:21:17;15.00;99.90
17348;DHT22;8791;50.876;4.342;2024-02-15T09:23:43;15.00;99.90
17348;DHT22;8791;50.876;4.342;2024-02-15T09:26:11;15.10;99.90
17348;DHT22;8791;50.876;4.342;2024-02-15T09:28:39;15.20;99.90
17348;DHT22;8791;50.876;4.342;2024-02-15T09:31:06;15.30;99.90
17348;DHT22;8791;50.876;4.342;2024-02-15T09:33:34;15.40;99.90
17348;DHT22;8791;50.876;4.342;2024-02-15T09:36:02;15.30;99.90
17348;DHT22;8791;50.876;4.342;2024-02-15T09:38:29;15.20;99.90
17348;DHT22;8791;50.876;4.342;2024-02-15T09:40:55;15.20;99.90
17348;DHT22;8791;50.876;4.342;2024-02-15T09:43:21;15.30;99.90
17348;DHT22;8791;50.876;4.342;2024-02-15T09:45:52;15.40;99.90
17348;DHT22;8791;50.876;4.342;2024-02-15T09:48:19;15.60;99.90
17348;DHT22;8791;50.876;4.342;2024-02-15T09:50:52;15.60;99.90
17348;DHT22;8791;50.876;4.342;2024-02-15T09:53:21;15.70;99.90
17348;DHT22;8791;50.876;4.342;2024-02-15T09:55:52;15.80;99.90
17348;DHT22;8791;50.876;4.342;2024-02-15T09:58:20;15.80;99.90
17348;DHT22;8791;50.876;4.342;2024-02-15T10:00:48;15.90;99.90
17348;DHT22;8791;50.876;4.342;2024-02-15T10:03:19;16.00;99.90
17348;DHT22;8791;50.876;4.342;2024-02-15T10:05:49;15.90;99.90
17348;DHT22;8791;50.876;4.342;2024-02-15T10:08:17;15.60;99.90
17348;DHT22;8791;50.876;4.342;2024-02-15T10:10:47;15.60;99.90
17348;DHT22;8791;50.876;4.342;2024-02-15T10:13:14;15.60;99.90
17348;DHT22;8791;50.876;4.342;2024-02-15T10:15:42;15.60;99.90
17348;DHT22;8791;50.876;4.342;2024-02-15T10:18:10;15.60;99.90
17348;DHT22;8791;50.876;4.342;2024-02-15T10:20:38;15.80;99.90
17348;DHT22;8791;50.876;4.342;2024-02-15T10:23:13;15.90;99.90
17348;DHT22;8791;50.876;4.342;2024-02-15T10:25:42;15.90;99.90
17348;DHT22;8791;50.876;4.342;2024-02-15T10:28:10;15.90;99.90
17348;DHT22;8791;50.876;4.342;2024-02-15T10:30:43;16.10;99.90
17348;DHT22;8791;50.876;4.342;2024-02-15T10:33:26;16.40;99.90
17348;DHT22;8791;50.876;4.342;2024-02-15T10:36:06;16.50;99.90
17348;DHT22;8791;50.876;4.342;2024-02-15T10:38:35;16.40;99.90
17348;DHT22;8791;50.876;4.342;2024-02-15T10:41:04;16.40;99.90
17348;DHT22;8791;50.876;4.342;2024-02-15T10:43:33;16.40;99.90
17348;DHT22;8791;50.876;4.342;2024-02-15T10:46:00;16.60;99.90
17348;DHT22;8791;50.876;4.342;2024-02-15T10:48:28;16.60;99.90
17348;DHT22;8791;50.876;4.342;2024-02-15T10:50:57;16.60;99.90
17348;DHT22;8791;50.876;4.342;2024-02-15T10:53:30;16.80;99.90
17348;DHT22;8791;50.876;4.342;2024-02-15T10:56:14;16.80;99.90
17348;DHT22;8791;50.876;4.342;2024-02-15T10:58:47;16.90;99.90
17348;DHT22;8791;50.876;4.342;2024-02-15T11:01:17;17.00;99.90
17348;DHT22;8791;50.876;4.342;2024-02-15T11:03:59;17.00;99.90
17348;DHT22;8791;50.876;4.342;2024-02-15T11:06:27;17.00;99.90
17348;DHT22;8791;50.876;4.342;2024-02-15T11:08:55;16.80;99.90
17348;DHT22;8791;50.876;4.342;2024-02-15T11:11:23;16.80;99.90
17348;DHT22;8791;50.876;4.342;2024-02-15T11:14:23;16.80;99.90
17348;DHT22;8791;50.876;4.342;2024-02-15T11:16:50;16.80;99.90
17348;DHT22;8791;50.876;4.342;2024-02-15T11:19:41;17.00;99.90
17348;DHT22;8791;50.876;4.342;2024-02-15T11:22:12;17.10;99.90
17348;DHT22;8791;50.876;4.342;2024-02-15T11:24:46;17.00;99.90
17348;DHT22;8791;50.876;4.342;2024-02-15T11:27:24;17.20;99.90
17348;DHT22;8791;50.876;4.342;2024-02-15T11:29:52;17.30;99.90
17348;DHT22;8791;50.876;4.342;2024-02-15T11:32:37;17.50;99.90
17348;DHT22;8791;50.876;4.342;2024-02-15T11:35:06;17.60;99.90
17348;DHT22;8791;50.876;4.342;2024-02-15T11:37:58;17.70;99.90
17348;DHT22;8791;50.876;4.342;2024-02-15T11:40:28;17.70;99.90
17348;DHT22;8791;50.876;4.342;2024-02-15T11:42:58;17.70;99.90
17348;DHT22;8791;50.876;4.342;2024-02-15T11:45:25;17.60;99.90
17348;DHT22;8791;50.876;4.342;2024-02-15T11:47:58;17.40;99.90
17348;DHT22;8791;50.876;4.342;2024-02-15T11:50:28;17.60;99.90
17348;DHT22;8791;50.876;4.342;2024-02-15T11:53:03;17.40;99.90
17348;DHT22;8791;50.876;4.342;2024-02-15T11:55:35;17.30;99.90
17348;DHT22;8791;50.876;4.342;2024-02-15T11:58:04;17.10;99.90
17348;DHT22;8791;50.876;4.342;2024-02-15T12:00:43;17.30;99.90
17348;DHT22;8791;50.876;4.342;2024-02-15T12:03:28;17.10;99.90
17348;DHT22;8791;50.876;4.342;2024-02-15T12:06:17;17.00;99.90
17348;DHT22;8791;50.876;4.342;2024-02-15T12:09:01;16.90;99.90
17348;DHT22;8791;50.876;4.342;2024-02-15T12:11:57;17.00;99.90
17348;DHT22;8791;50.876;4.342;2024-02-15T12:14:43;17.10;99.90
17348;DHT22;8791;50.876;4.342;2024-02-15T12:17:28;17.00;99.90
17348;DHT22;8791;50.876;4.342;2024-02-15T12:20:12;17.00;99.90
17348;DHT22;8791;50.876;4.342;2024-02-15T12:22:40;17.00;99.90
17348;DHT22;8791;50.876;4.342;2024-02-15T12:25:14;17.00;99.90
17348;DHT22;8791;50.876;4.342;2024-02-15T12:27:42;16.90;99.90
17348;DHT22;8791;50.876;4.342;2024-02-15T12:30:14;16.90;99.90
17348;DHT22;8791;50.876;4.342;2024-02-15T12:32:45;16.90;99.90
17348;DHT22;8791;50.876;4.342;2024-02-15T12:35:13;16.90;99.90
17348;DHT22;8791;50.876;4.342;2024-02-15T12:37:42;17.00;99.90
17348;DHT22;8791;50.876;4.342;2024-02-15T12:40:12;17.00;99.90
17348;DHT22;8791;50.876;4.342;2024-02-15T12:42:41;17.30;99.90
17348;DHT22;8791;50.876;4.342;2024-02-15T12:45:17;17.40;99.90
17348;DHT22;8791;50.876;4.342;2024-02-15T12:47:48;17.20;99.90
17348;DHT22;8791;50.876;4.342;2024-02-15T12:50:17;17.30;99.90
17348;DHT22;8791;50.876;4.342;2024-02-15T12:52:45;17.50;99.90
17348;DHT22;8791;50.876;4.342;2024-02-15T12:55:15;17.60;99.90
17348;DHT22;8791;50.876;4.342;2024-02-15T12:57:43;17.60;99.90
17348;DHT22;8791;50.876;4.342;2024-02-15T13:00:17;17.60;99.90
17348;DHT22;8791;50.876;4.342;2024-02-15T13:02:45;17.70;99.90
17348;DHT22;8791;50.876;4.342;2024-02-15T13:05:14;17.80;99.90
17348;DHT22;8791;50.876;4.342;2024-02-15T13:07:41;17.80;99.90
17348;DHT22;8791;50.876;4.342;2024-02-15T13:10:08;17.80;99.90
17348;DHT22;8791;50.876;4.342;2024-02-15T13:12:36;17.80;99.90
17348;DHT22;8791;50.876;4.342;2024-02-15T13:15:04;17.90;99.90
17348;DHT22;8791;50.876;4.342;2024-02-15T13:17:34;17.80;99.90
17348;DHT22;8791;50.876;4.342;2024-02-15T13:20:01;17.90;99.90
17348;DHT22;8791;50.876;4.342;2024-02-15T13:22:36;18.00;99.90
17348;DHT22;8791;50.876;4.342;2024-02-15T13:25:05;18.00;99.90
17348;DHT22;8791;50.876;4.342;2024-02-15T13:27:33;17.90;99.90
17348;DHT22;8791;50.876;4.342;2024-02-15T13:30:00;17.90;99.90
17348;DHT22;8791;50.876;4.342;2024-02-15T13:32:27;17.80;99.90
17348;DHT22;8791;50.876;4.342;2024-02-15T13:34:56;17.70;99.90
17348;DHT22;8791;50.876;4.342;2024-02-15T13:37:25;17.70;99.90
17348;DHT22;8791;50.876;4.342;2024-02-15T13:39:51;17.80;99.90
17348;DHT22;8791;50.876;4.342;2024-02-15T13:42:18;17.90;99.90
17348;DHT22;8791;50.876;4.342;2024-02-15T13:44:45;18.00;99.90
17348;DHT22;8791;50.876;4.342;2024-02-15T13:47:16;18.20;99.90
17348;DHT22;8791;50.876;4.342;2024-02-15T13:49:42;18.20;99.90
17348;DHT22;8791;50.876;4.342;2024-02-15T13:52:11;18.20;99.90
17348;DHT22;8791;50.876;4.342;2024-02-15T13:54:37;18.10;99.90
17348;DHT22;8791;50.876;4.342;2024-02-15T13:57:05;18.20;99.90
17348;DHT22;8791;50.876;4.342;2024-02-15T13:59:33;18.00;99.90
17348;DHT22;8791;50.876;4.342;2024-02-15T14:02:00;18.00;99.90
17348;DHT22;8791;50.876;4.342;2024-02-15T14:04:29;18.00;99.90
17348;DHT22;8791;50.876;4.342;2024-02-15T14:06:57;18.00;99.90
17348;DHT22;8791;50.876;4.342;2024-02-15T14:09:27;17.80;99.90
17348;DHT22;8791;50.876;4.342;2024-02-15T14:11:54;17.90;99.90
17348;DHT22;8791;50.876;4.342;2024-02-15T14:14:21;18.00;99.90
17348;DHT22;8791;50.876;4.342;2024-02-15T14:16:48;17.90;99.90
17348;DHT22;8791;50.876;4.342;2024-02-15T14:19:15;18.00;99.90
17348;DHT22;8791;50.876;4.342;2024-02-15T14:21:43;17.90;99.90
17348;DHT22;8791;50.876;4.342;2024-02-15T14:24:10;17.90;99.90
17348;DHT22;8791;50.876;4.342;2024-02-15T14:26:39;18.00;99.90
17348;DHT22;8791;50.876;4.342;2024-02-15T14:29:06;17.80;99.90
17348;DHT22;8791;50.876;4.342;2024-02-15T14:31:35;18.20;99.90
17348;DHT22;8791;50.876;4.342;2024-02-15T14:34:19;18.20;99.90
17348;DHT22;8791;50.876;4.342;2024-02-15T14:36:46;18.20;99.90
17348;DHT22;8791;50.876;4.342;2024-02-15T14:39:14;18.00;99.90
17348;DHT22;8791;50.876;4.342;2024-02-15T14:41:42;18.00;99.90
17348;DHT22;8791;50.876;4.342;2024-02-15T14:44:10;18.10;99.90
17348;DHT22;8791;50.876;4.342;2024-02-15T14:46:38;18.20;99.90
17348;DHT22;8791;50.876;4.342;2024-02-15T14:49:06;18.10;99.90
17348;DHT22;8791;50.876;4.342;2024-02-15T14:51:33;18.00;99.90
17348;DHT22;8791;50.876;4.342;2024-02-15T14:54:02;18.10;99.90
17348;DHT22;8791;50.876;4.342;2024-02-15T14:56:30;18.20;99.90
17348;DHT22;8791;50.876;4.342;2024-02-15T14:59:00;18.40;99.90
17348;DHT22;8791;50.876;4.342;2024-02-15T15:01:27;18.30;99.90
17348;DHT22;8791;50.876;4.342;2024-02-15T15:03:55;18.40;99.90
17348;DHT22;8791;50.876;4.342;2024-02-15T15:06:24;18.20;99.90
17348;DHT22;8791;50.876;4.342;2024-02-15T15:09:08;18.10;99.90
17348;DHT22;8791;50.876;4.342;2024-02-15T15:11:53;18.10;99.90
17348;DHT22;8791;50.876;4.342;2024-02-15T15:14:39;18.20;99.90
17348;DHT22;8791;50.876;4.342;2024-02-15T15:17:07;18.20;99.90
17348;DHT22;8791;50.876;4.342;2024-02-15T15:19:36;18.10;99.90
17348;DHT22;8791;50.876;4.342;2024-02-15T15:22:03;18.00;99.90
17348;DHT22;8791;50.876;4.342;2024-02-15T15:24:33;18.10;99.90
17348;DHT22;8791;50.876;4.342;2024-02-15T15:27:00;18.00;99.90
17348;DHT22;8791;50.876;4.342;2024-02-15T15:29:27;17.90;99.90
17348;DHT22;8791;50.876;4.342;2024-02-15T15:31:57;17.80;99.90
17348;DHT22;8791;50.876;4.342;2024-02-15T15:34:24;17.70;99.90
17348;DHT22;8791;50.876;4.342;2024-02-15T15:36:51;17.70;99.90
17348;DHT22;8791;50.876;4.342;2024-02-15T15:39:20;17.90;99.90
17348;DHT22;8791;50.876;4.342;2024-02-15T15:41:50;17.90;99.90
17348;DHT22;8791;50.876;4.342;2024-02-15T15:44:19;17.80;99.90
17348;DHT22;8791;50.876;4.342;2024-02-15T15:46:48;17.90;99.90
17348;DHT22;8791;50.876;4.342;2024-02-15T15:49:16;17.80;99.90
17348;DHT22;8791;50.876;4.342;2024-02-15T15:51:44;17.60;99.90
17348;DHT22;8791;50.876;4.342;2024-02-15T15:54:10;17.50;99.90
17348;DHT22;8791;50.876;4.342;2024-02-15T15:56:37;17.40;99.90